Test XHTML 1.0 Strict Page for WU-History Testing
Histórico de la Estación METEOCORUÑA
Diario Datos del Noviembre 09, 2018 Unidades:  Inglés    Metrico   Ambos
« Prev Dia
Sig Dia »
Diario Semanal Mensual Anual Rango
  Max: Min: Media:
Temp: TemperatureC °F 9.6 °F 12.6 °F
Rocío: DewpointC °F 7.4 °F 10.7 °F
Humedad: Humidity % 82 % 88 %
Vel. viento: WindSpeedKMH mph 6.4 mph 22.4 mph
Racha: WindSpeedGustKMH mph - -
Viento:- - South
Presión: PressurehPa in 1004.2 in -
Lluvia: 27.7 in    
Historical Graphs
 
 
Busqueda de Noviembre 09, 2018
Hora Temp Rocío Presión Viento Vel. viento Racha Humedad Ratio lluvia (/hora) Radiación
TemperatureC °F DewpointC °F PressurehPa in Calm     Humidity % HourlyPrecipMM in SolarRadiationWatts/m^2 W/m2
00:02 9.7 °F 8.3 °F 1014.1 in South 18.5 mph 11.3 mph 91 % 0.0 in 0.00 W/m2
00:06 9.7 °F 8.3 °F 1014.1 in South 19.3 mph 14.0 mph 91 % 0.0 in 0.00 W/m2
00:12 9.8 °F 8.4 °F 1014.1 in South 19.3 mph 14.2 mph 91 % 0.0 in 0.00 W/m2
00:18 9.8 °F 8.2 °F 1014.2 in South 16.7 mph 12.7 mph 90 % 0.0 in 0.00 W/m2
00:24 9.7 °F 8.1 °F 1014.8 in South 11.3 mph 19.3 mph 90 % 0.0 in 0.00 W/m2
00:29 9.7 °F 8.1 °F 1014.9 in South 11.3 mph 20.9 mph 90 % 0.0 in 0.00 W/m2
00:34 9.7 °F 8.1 °F 1014.9 in South 12.9 mph 19.3 mph 90 % 0.0 in 0.00 W/m2
00:39 9.7 °F 8.1 °F 1014.8 in South 11.3 mph 20.9 mph 90 % 0.0 in 0.00 W/m2
00:44 9.7 °F 8.1 °F 1014.9 in South 11.3 mph 19.3 mph 90 % 0.0 in 0.00 W/m2
00:49 9.8 °F 8.2 °F 1014.9 in South 11.3 mph 22.5 mph 90 % 0.0 in 0.00 W/m2
00:54 9.9 °F 8.3 °F 1014.9 in South 12.9 mph 20.9 mph 90 % 0.0 in 0.00 W/m2
00:59 10.0 °F 8.4 °F 1014.9 in South 12.9 mph 22.5 mph 90 % 0.0 in 0.00 W/m2
01:04 10.1 °F 8.4 °F 1015.0 in South 12.9 mph 22.5 mph 89 % 0.0 in 0.00 W/m2
01:09 10.2 °F 8.4 °F 1015.1 in South 12.9 mph 20.9 mph 89 % 0.0 in 0.00 W/m2
01:14 10.4 °F 8.5 °F 1015.0 in South 12.9 mph 22.5 mph 88 % 0.0 in 0.00 W/m2
01:19 10.4 °F 8.5 °F 1015.0 in South 12.9 mph 25.7 mph 88 % 0.0 in 0.00 W/m2
01:24 10.5 °F 8.4 °F 1015.0 in South 14.5 mph 25.7 mph 87 % 0.0 in 0.00 W/m2
01:29 10.4 °F 8.3 °F 1015.1 in South 12.9 mph 22.5 mph 87 % 0.0 in 0.00 W/m2
01:34 10.5 °F 8.4 °F 1015.1 in South 12.9 mph 27.4 mph 87 % 0.0 in 0.00 W/m2
01:39 10.4 °F 8.2 °F 1015.1 in South 14.5 mph 20.9 mph 86 % 0.0 in 0.00 W/m2
01:44 10.4 °F 8.2 °F 1015.1 in South 12.9 mph 22.5 mph 86 % 0.0 in 0.00 W/m2
01:49 10.4 °F 8.2 °F 1015.1 in South 11.3 mph 22.5 mph 86 % 0.0 in 0.00 W/m2
01:54 10.4 °F 8.2 °F 1015.1 in South 11.3 mph 20.9 mph 86 % 0.0 in 0.00 W/m2
01:59 10.3 °F 8.1 °F 1015.1 in South 12.9 mph 24.1 mph 86 % 0.0 in 0.00 W/m2
02:04 10.3 °F 8.1 °F 1015.2 in South 12.9 mph 22.5 mph 86 % 0.0 in 0.00 W/m2
02:09 10.3 °F 8.1 °F 1015.1 in South 12.9 mph 22.5 mph 86 % 0.0 in 0.00 W/m2
02:14 10.3 °F 8.1 °F 1015.1 in South 14.5 mph 24.1 mph 86 % 0.0 in 0.00 W/m2
02:19 10.4 °F 8.2 °F 1015.2 in South 14.5 mph 27.4 mph 86 % 0.0 in 0.00 W/m2
02:24 10.3 °F 7.9 °F 1015.1 in South 14.5 mph 24.1 mph 85 % 0.0 in 0.00 W/m2
02:29 10.3 °F 7.9 °F 1015.2 in South 12.9 mph 19.3 mph 85 % 0.0 in 0.00 W/m2
02:34 10.2 °F 7.8 °F 1015.2 in SSE 9.7 mph 19.3 mph 85 % 0.0 in 0.00 W/m2
02:39 10.1 °F 7.9 °F 1015.2 in South 9.7 mph 17.7 mph 86 % 0.0 in 0.00 W/m2
02:44 10.1 °F 7.9 °F 1015.2 in South 11.3 mph 19.3 mph 86 % 0.0 in 0.00 W/m2
02:49 10.1 °F 7.9 °F 1015.3 in South 11.3 mph 19.3 mph 86 % 0.0 in 0.00 W/m2
02:54 10.2 °F 7.8 °F 1015.3 in South 11.3 mph 19.3 mph 85 % 0.0 in 0.00 W/m2
02:59 10.1 °F 7.7 °F 1015.3 in South 11.3 mph 20.9 mph 85 % 0.0 in 0.00 W/m2
03:04 10.3 °F 7.9 °F 1015.3 in South 11.3 mph 25.7 mph 85 % 0.0 in 0.00 W/m2
03:09 10.4 °F 8.0 °F 1015.3 in South 12.9 mph 20.9 mph 85 % 0.0 in 0.00 W/m2
03:14 10.3 °F 7.9 °F 1015.4 in South 11.3 mph 20.9 mph 85 % 0.0 in 0.00 W/m2
03:19 10.3 °F 7.9 °F 1015.4 in South 9.7 mph 16.1 mph 85 % 0.0 in 0.00 W/m2
03:24 10.3 °F 7.9 °F 1015.4 in SSE 9.7 mph 20.9 mph 85 % 0.0 in 0.00 W/m2
03:29 10.3 °F 7.9 °F 1015.3 in South 11.3 mph 20.9 mph 85 % 0.0 in 0.00 W/m2
03:34 10.3 °F 7.9 °F 1015.2 in SSE 9.7 mph 16.1 mph 85 % 0.0 in 0.00 W/m2
03:39 10.2 °F 7.8 °F 1015.2 in South 8.0 mph 14.5 mph 85 % 0.0 in 0.00 W/m2
03:44 10.0 °F 7.6 °F 1015.1 in SSE 6.4 mph 16.1 mph 85 % 0.0 in 0.00 W/m2
03:49 9.8 °F 7.4 °F 1015.2 in SSE 8.0 mph 24.1 mph 85 % 0.0 in 0.00 W/m2
03:54 9.8 °F 7.6 °F 1015.2 in South 9.7 mph 29.0 mph 86 % 0.0 in 0.00 W/m2
03:59 9.8 °F 7.6 °F 1015.3 in SSE 12.9 mph 30.6 mph 86 % 0.0 in 0.00 W/m2
04:04 9.8 °F 7.6 °F 1015.3 in South 16.1 mph 32.2 mph 86 % 0.0 in 0.00 W/m2
04:09 9.8 °F 7.6 °F 1015.2 in SSE 14.5 mph 29.0 mph 86 % 0.0 in 0.00 W/m2
04:14 9.7 °F 7.4 °F 1015.2 in SSE 11.3 mph 24.1 mph 86 % 0.0 in 0.00 W/m2
04:19 9.7 °F 7.4 °F 1015.2 in SSE 11.3 mph 22.5 mph 86 % 0.0 in 0.00 W/m2
04:24 9.6 °F 7.4 °F 1015.0 in SSE 11.3 mph 24.1 mph 86 % 0.0 in 0.00 W/m2
04:29 9.6 °F 7.6 °F 1015.2 in SSE 9.7 mph 20.9 mph 87 % 0.0 in 0.00 W/m2
04:34 9.7 °F 7.7 °F 1015.1 in SSE 11.3 mph 33.8 mph 87 % 0.0 in 0.00 W/m2
04:39 9.8 °F 7.7 °F 1015.0 in South 14.5 mph 29.0 mph 87 % 0.0 in 0.00 W/m2
04:44 9.8 °F 7.6 °F 1015.0 in SSE 12.9 mph 24.1 mph 86 % 0.0 in 0.00 W/m2
04:49 9.8 °F 7.6 °F 1015.0 in SSE 12.9 mph 20.9 mph 86 % 0.0 in 0.00 W/m2
04:54 9.8 °F 7.6 °F 1015.0 in SSE 12.9 mph 33.8 mph 86 % 0.0 in 0.00 W/m2
04:59 9.8 °F 7.7 °F 1015.2 in SSE 14.5 mph 24.1 mph 87 % 0.0 in 0.00 W/m2
05:04 9.8 °F 7.7 °F 1015.3 in SSE 14.5 mph 25.7 mph 87 % 0.0 in 0.00 W/m2
05:09 9.9 °F 7.8 °F 1015.2 in SSE 12.9 mph 30.6 mph 87 % 0.0 in 0.00 W/m2
05:14 9.9 °F 7.8 °F 1015.2 in SSE 14.5 mph 30.6 mph 87 % 0.0 in 0.00 W/m2
05:19 9.9 °F 7.8 °F 1015.2 in SSE 14.5 mph 33.8 mph 87 % 0.0 in 0.00 W/m2
05:24 9.9 °F 7.8 °F 1015.3 in SSE 14.5 mph 32.2 mph 87 % 0.0 in 0.00 W/m2
05:29 9.9 °F 7.8 °F 1015.4 in SSE 12.9 mph 29.0 mph 87 % 0.0 in 0.00 W/m2
05:34 9.9 °F 7.8 °F 1015.2 in SSE 12.9 mph 24.1 mph 87 % 0.0 in 0.00 W/m2
05:39 9.9 °F 7.8 °F 1015.2 in SSE 12.9 mph 29.0 mph 87 % 0.0 in 0.00 W/m2
05:44 10.1 °F 8.1 °F 1015.3 in SSE 14.5 mph 29.0 mph 87 % 0.0 in 0.00 W/m2
05:49 10.1 °F 8.1 °F 1015.2 in SE 16.1 mph 30.6 mph 87 % 0.0 in 0.00 W/m2
05:54 10.1 °F 8.1 °F 1015.3 in SSE 17.7 mph 38.6 mph 87 % 0.0 in 0.00 W/m2
05:59 10.0 °F 7.9 °F 1015.1 in SE 17.7 mph 35.4 mph 87 % 0.0 in 0.00 W/m2
06:04 10.0 °F 7.9 °F 1015.3 in SSE 17.7 mph 32.2 mph 87 % 0.0 in 0.00 W/m2
06:09 10.0 °F 7.9 °F 1015.3 in SSE 17.7 mph 33.8 mph 87 % 0.0 in 0.00 W/m2
06:14 10.1 °F 8.1 °F 1015.0 in SE 19.3 mph 33.8 mph 87 % 0.0 in 0.00 W/m2
06:19 10.1 °F 8.1 °F 1015.1 in SSE 17.7 mph 27.4 mph 87 % 0.0 in 0.00 W/m2
06:24 10.1 °F 8.1 °F 1015.0 in SSE 19.3 mph 35.4 mph 87 % 0.0 in 0.00 W/m2
06:29 10.2 °F 8.1 °F 1015.0 in SSE 19.3 mph 35.4 mph 87 % 0.0 in 0.00 W/m2
06:34 10.3 °F 8.2 °F 1014.9 in SE 19.3 mph 41.8 mph 87 % 0.0 in 0.00 W/m2
06:39 10.3 °F 8.2 °F 1014.9 in SSE 19.3 mph 38.6 mph 87 % 0.0 in 0.00 W/m2
06:44 10.3 °F 8.1 °F 1014.8 in SSE 22.5 mph 43.4 mph 86 % 0.0 in 0.00 W/m2
06:49 10.3 °F 8.1 °F 1014.4 in SSE 24.1 mph 30.6 mph 86 % 0.0 in 0.00 W/m2
06:54 10.4 °F 8.2 °F 1014.2 in SSE 20.9 mph 35.4 mph 86 % 0.0 in 0.00 W/m2
06:59 10.4 °F 8.2 °F 1014.4 in SSE 17.7 mph 38.6 mph 86 % 0.0 in 0.00 W/m2
07:04 10.6 °F 8.3 °F 1014.4 in SSE 17.7 mph 48.3 mph 86 % 0.0 in 0.00 W/m2
07:09 10.6 °F 8.3 °F 1014.0 in SSE 24.1 mph 45.1 mph 86 % 0.0 in 0.00 W/m2
07:14 10.7 °F 8.4 °F 1014.2 in SSE 22.5 mph 35.4 mph 86 % 0.0 in 0.00 W/m2
07:19 10.7 °F 8.4 °F 1013.9 in SSE 20.9 mph 43.4 mph 86 % 0.0 in 0.00 W/m2
07:24 10.8 °F 8.6 °F 1013.8 in SE 19.3 mph 35.4 mph 86 % 0.0 in 0.00 W/m2
07:29 10.8 °F 8.6 °F 1013.8 in SSE 19.3 mph 38.6 mph 86 % 0.0 in 0.00 W/m2
07:34 10.8 °F 8.6 °F 1013.7 in SE 17.7 mph 24.1 mph 86 % 0.0 in 0.00 W/m2
07:39 10.8 °F 8.7 °F 1013.8 in SE 14.5 mph 24.1 mph 87 % 0.0 in 0.00 W/m2
07:44 10.9 °F 8.8 °F 1014.0 in SSE 12.9 mph 35.4 mph 87 % 0.0 in 0.00 W/m2
07:49 11.0 °F 8.9 °F 1013.8 in SE 14.5 mph 38.6 mph 87 % 0.0 in 0.00 W/m2
07:54 11.1 °F 8.8 °F 1013.9 in SSE 17.7 mph 45.1 mph 86 % 0.0 in 0.00 W/m2
07:59 11.1 °F 8.8 °F 1013.7 in SSE 19.3 mph 37.0 mph 86 % 0.0 in 0.00 W/m2
08:04 11.1 °F 8.8 °F 1013.5 in SE 16.1 mph 35.4 mph 86 % 0.0 in 0.00 W/m2
08:09 11.2 °F 8.9 °F 1013.5 in SSE 14.5 mph 35.4 mph 86 % 0.0 in 0.00 W/m2
08:14 11.2 °F 8.9 °F 1013.5 in SSE 14.5 mph 38.6 mph 86 % 0.0 in 7.00 W/m2
08:19 11.2 °F 8.9 °F 1013.5 in SSE 14.5 mph 46.7 mph 86 % 0.0 in 11.00 W/m2
08:24 11.3 °F 9.1 °F 1013.7 in SE 16.1 mph 29.0 mph 86 % 0.0 in 9.00 W/m2
08:29 11.4 °F 9.2 °F 1013.5 in SSE 14.5 mph 38.6 mph 86 % 0.0 in 11.00 W/m2
08:34 11.4 °F 8.9 °F 1013.4 in SE 14.5 mph 29.0 mph 85 % 0.0 in 16.00 W/m2
08:39 11.4 °F 8.9 °F 1013.5 in SE 14.5 mph 40.2 mph 85 % 0.0 in 25.00 W/m2
08:43 11.5 °F 9.1 °F 1013.3 in SSE 16.1 mph 35.4 mph 85 % 0.0 in 26.00 W/m2
08:49 11.6 °F 9.3 °F 1013.4 in SE 17.7 mph 37.0 mph 86 % 0.0 in 25.00 W/m2
08:54 11.6 °F 9.2 °F 1013.0 in SE 14.5 mph 29.0 mph 85 % 0.0 in 28.00 W/m2
08:59 11.7 °F 9.3 °F 1013.0 in SE 12.9 mph 37.0 mph 85 % 0.0 in 35.00 W/m2
09:04 11.7 °F 9.3 °F 1012.8 in SE 14.5 mph 35.4 mph 85 % 0.0 in 44.00 W/m2
09:09 11.8 °F 9.3 °F 1012.6 in SE 17.7 mph 51.5 mph 85 % 0.0 in 47.00 W/m2
09:14 11.9 °F 9.3 °F 1012.8 in SSE 14.5 mph 45.1 mph 84 % 0.0 in 44.00 W/m2
09:19 12.1 °F 9.5 °F 1013.0 in SSE 14.5 mph 62.8 mph 84 % 0.0 in 51.00 W/m2
09:24 12.1 °F 9.5 °F 1013.1 in SSE 20.9 mph 33.8 mph 84 % 0.0 in 58.00 W/m2
09:29 12.1 °F 9.5 °F 1012.9 in SE 19.3 mph 25.7 mph 84 % 0.0 in 62.00 W/m2
09:34 12.1 °F 9.5 °F 1012.8 in SSE 19.3 mph 38.6 mph 84 % 0.0 in 67.00 W/m2
09:39 12.2 °F 9.6 °F 1012.6 in SSE 19.3 mph 40.2 mph 84 % 0.0 in 56.00 W/m2
09:44 12.2 °F 9.6 °F 1012.4 in SSE 17.7 mph 37.0 mph 84 % 0.0 in 46.00 W/m2
09:49 12.2 °F 9.6 °F 1012.3 in SSE 17.7 mph 46.7 mph 84 % 0.0 in 51.00 W/m2
09:54 12.3 °F 9.7 °F 1012.2 in SSE 17.7 mph 40.2 mph 84 % 0.0 in 56.00 W/m2
09:59 12.3 °F 9.7 °F 1012.3 in SSE 17.7 mph 49.9 mph 84 % 0.0 in 62.00 W/m2
10:04 12.3 °F 9.7 °F 1011.9 in SSE 20.9 mph 49.9 mph 84 % 0.0 in 58.00 W/m2
10:09 12.4 °F 9.8 °F 1012.3 in SSE 22.5 mph 62.8 mph 84 % 0.0 in 67.00 W/m2
10:14 12.5 °F 9.9 °F 1012.1 in SSE 24.1 mph 59.5 mph 84 % 0.0 in 58.00 W/m2
10:19 12.5 °F 9.9 °F 1011.8 in SSE 25.7 mph 48.3 mph 84 % 0.0 in 72.00 W/m2
10:24 12.7 °F 10.1 °F 1012.0 in SSE 25.7 mph 53.1 mph 84 % 0.0 in 91.00 W/m2
10:29 12.8 °F 10.0 °F 1011.5 in SSE 27.4 mph 48.3 mph 83 % 0.0 in 120.00 W/m2
10:34 12.9 °F 10.1 °F 1011.7 in SSE 24.1 mph 41.8 mph 83 % 0.0 in 90.00 W/m2
10:39 13.0 °F 10.2 °F 1011.1 in South 24.1 mph 67.6 mph 83 % 0.0 in 123.00 W/m2
10:44 13.1 °F 10.3 °F 1011.6 in SSE 25.7 mph 56.3 mph 83 % 0.0 in 93.00 W/m2
10:49 13.0 °F 10.2 °F 1011.1 in SSE 24.1 mph 62.8 mph 83 % 0.0 in 81.00 W/m2
10:54 12.9 °F 10.1 °F 1010.8 in SSE 25.7 mph 48.3 mph 83 % 0.0 in 83.00 W/m2
10:59 12.9 °F 10.1 °F 1010.8 in SSE 24.1 mph 49.9 mph 83 % 0.0 in 88.00 W/m2
11:04 13.0 °F 10.2 °F 1011.2 in SSE 25.7 mph 78.8 mph 83 % 0.0 in 83.00 W/m2
11:09 13.1 °F 10.3 °F 1010.6 in SSE 29.0 mph 56.3 mph 83 % 0.0 in 90.00 W/m2
11:14 13.1 °F 10.3 °F 1010.4 in SSE 30.6 mph 64.4 mph 83 % 0.0 in 100.00 W/m2
11:19 13.1 °F 10.3 °F 1010.9 in SSE 32.2 mph 53.1 mph 83 % 0.0 in 93.00 W/m2
11:24 13.2 °F 10.4 °F 1010.3 in SSE 32.2 mph 56.3 mph 83 % 0.0 in 91.00 W/m2
11:29 13.2 °F 10.4 °F 1010.4 in SSE 32.2 mph 70.8 mph 83 % 0.0 in 105.00 W/m2
11:34 13.3 °F 10.3 °F 1011.1 in SSE 37.0 mph 80.4 mph 82 % 0.0 in 135.00 W/m2
11:39 13.3 °F 10.3 °F 1010.4 in SSE 41.8 mph 66.0 mph 82 % 0.0 in 132.00 W/m2
11:44 13.2 °F 10.4 °F 1010.2 in SSE 38.6 mph 72.4 mph 83 % 0.0 in 111.00 W/m2
11:49 13.3 °F 10.5 °F 1010.3 in SSE 37.0 mph 75.6 mph 83 % 0.0 in 102.00 W/m2
11:54 13.2 °F 10.6 °F 1010.7 in SSE 35.4 mph 61.1 mph 84 % 0.0 in 109.00 W/m2
11:59 13.3 °F 10.7 °F 1010.1 in SSE 32.2 mph 74.0 mph 84 % 0.0 in 97.00 W/m2
12:04 13.3 °F 10.7 °F 1009.8 in SSE 33.8 mph 82.1 mph 84 % 0.0 in 88.00 W/m2
12:09 13.3 °F 10.8 °F 1009.9 in SSE 33.8 mph 66.0 mph 85 % 0.0 in 137.00 W/m2
12:14 13.4 °F 10.8 °F 1010.3 in SSE 32.2 mph 78.8 mph 84 % 0.0 in 102.00 W/m2
12:19 13.5 °F 10.8 °F 1010.3 in SSE 35.4 mph 57.9 mph 84 % 0.0 in 91.00 W/m2
12:24 13.6 °F 10.8 °F 1010.5 in SSE 33.8 mph 82.1 mph 83 % 0.0 in 86.00 W/m2
12:29 13.7 °F 10.9 °F 1010.5 in SSE 33.8 mph 70.8 mph 83 % 0.0 in 84.00 W/m2
12:39 13.6 °F 10.8 °F 1010.0 in SE 38.6 mph 78.8 mph 83 % 0.0 in 102.00 W/m2
12:44 13.4 °F 10.6 °F 1009.8 in SSE 37.0 mph 70.8 mph 83 % 0.0 in 104.00 W/m2
12:49 13.4 °F 10.8 °F 1010.0 in SSE 37.0 mph 72.4 mph 84 % 0.0 in 116.00 W/m2
12:54 13.4 °F 10.8 °F 1009.7 in SSE 35.4 mph 69.2 mph 84 % 0.0 in 104.00 W/m2
12:59 13.4 °F 10.9 °F 1010.1 in SSE 33.8 mph 62.8 mph 85 % 0.0 in 84.00 W/m2
13:04 13.3 °F 10.8 °F 1009.8 in SSE 32.2 mph 54.7 mph 85 % 0.0 in 67.00 W/m2
13:09 13.2 °F 10.9 °F 1009.1 in SSE 30.6 mph 59.5 mph 86 % 0.0 in 130.00 W/m2
13:14 13.2 °F 10.9 °F 1009.3 in SSE 33.8 mph 70.8 mph 86 % 0.0 in 169.00 W/m2
13:19 13.2 °F 10.9 °F 1009.1 in SSE 35.4 mph 74.0 mph 86 % 0.0 in 130.00 W/m2
13:24 13.2 °F 11.1 °F 1009.2 in SSE 33.8 mph 57.9 mph 87 % 0.0 in 120.00 W/m2
13:29 13.2 °F 11.1 °F 1009.3 in SSE 29.0 mph 67.6 mph 87 % 0.0 in 113.00 W/m2
13:34 13.1 °F 11.0 °F 1009.3 in SSE 29.0 mph 53.1 mph 87 % 0.0 in 81.00 W/m2
13:39 13.2 °F 11.3 °F 1009.5 in SSE 33.8 mph 61.1 mph 88 % 0.0 in 79.00 W/m2
13:44 13.2 °F 11.3 °F 1009.4 in SSE 33.8 mph 53.1 mph 88 % 0.0 in 84.00 W/m2
13:49 13.2 °F 11.3 °F 1009.2 in SSE 30.6 mph 57.9 mph 88 % 0.0 in 76.00 W/m2
13:54 13.3 °F 11.3 °F 1009.0 in SSE 24.1 mph 41.8 mph 88 % 0.0 in 65.00 W/m2
13:59 13.3 °F 11.3 °F 1009.1 in SSE 24.1 mph 49.9 mph 88 % 0.0 in 69.00 W/m2
14:04 13.4 °F 11.4 °F 1008.9 in SSE 27.4 mph 70.8 mph 88 % 0.0 in 77.00 W/m2
14:09 13.4 °F 11.4 °F 1008.8 in SSE 25.7 mph 51.5 mph 88 % 0.0 in 74.00 W/m2
14:14 13.4 °F 11.6 °F 1008.8 in SSE 24.1 mph 51.5 mph 89 % 0.3 in 58.00 W/m2
14:19 13.4 °F 11.6 °F 1009.2 in SSE 25.7 mph 66.0 mph 89 % 0.3 in 46.00 W/m2
14:24 13.5 °F 11.7 °F 1008.6 in SSE 27.4 mph 48.3 mph 89 % 0.5 in 76.00 W/m2
14:29 13.6 °F 11.8 °F 1008.5 in SSE 25.7 mph 37.0 mph 89 % 0.5 in 83.00 W/m2
14:34 13.7 °F 11.9 °F 1008.4 in SE 25.7 mph 53.1 mph 89 % 0.5 in 69.00 W/m2
14:39 13.8 °F 12.0 °F 1008.5 in SE 25.7 mph 54.7 mph 89 % 0.5 in 67.00 W/m2
14:44 13.9 °F 12.1 °F 1008.4 in SE 25.7 mph 48.3 mph 89 % 0.5 in 51.00 W/m2
14:49 13.9 °F 12.3 °F 1008.7 in SSE 24.1 mph 46.7 mph 90 % 0.5 in 58.00 W/m2
14:54 14.2 °F 12.4 °F 1008.0 in SSE 25.7 mph 51.5 mph 89 % 0.5 in 72.00 W/m2
14:59 14.4 °F 12.6 °F 1008.0 in SSE 29.0 mph 51.5 mph 89 % 0.5 in 60.00 W/m2
15:04 14.4 °F 12.6 °F 1008.0 in SSE 24.1 mph 46.7 mph 89 % 0.5 in 58.00 W/m2
15:09 14.6 °F 12.8 °F 1008.1 in SSE 20.9 mph 56.3 mph 89 % 0.5 in 54.00 W/m2
15:14 14.6 °F 12.8 °F 1008.0 in SSE 22.5 mph 53.1 mph 89 % 0.5 in 53.00 W/m2
15:19 14.8 °F 13.0 °F 1007.7 in SSE 25.7 mph 61.1 mph 89 % 0.5 in 56.00 W/m2
15:24 14.8 °F 13.0 °F 1007.8 in SSE 29.0 mph 43.4 mph 89 % 0.5 in 39.00 W/m2
15:29 14.8 °F 13.0 °F 1007.4 in SSE 27.4 mph 48.3 mph 89 % 0.5 in 26.00 W/m2
15:34 14.9 °F 13.1 °F 1007.9 in SSE 27.4 mph 45.1 mph 89 % 0.5 in 26.00 W/m2
15:39 14.9 °F 13.1 °F 1007.5 in South 25.7 mph 41.8 mph 89 % 0.5 in 25.00 W/m2
15:44 15.0 °F 13.2 °F 1007.5 in SSE 25.7 mph 53.1 mph 89 % 0.5 in 28.00 W/m2
15:49 14.9 °F 13.1 °F 1007.7 in SSE 24.1 mph 49.9 mph 89 % 0.5 in 33.00 W/m2
15:54 15.0 °F 13.2 °F 1007.7 in SSE 19.3 mph 37.0 mph 89 % 0.5 in 32.00 W/m2
15:59 15.1 °F 13.4 °F 1007.6 in SSE 20.9 mph 40.2 mph 90 % 0.5 in 30.00 W/m2
16:04 15.2 °F 13.4 °F 1007.5 in South 20.9 mph 48.3 mph 89 % 0.5 in 25.00 W/m2
16:09 15.3 °F 13.5 °F 1007.3 in South 24.1 mph 46.7 mph 89 % 0.5 in 30.00 W/m2
16:14 15.4 °F 13.8 °F 1007.2 in South 24.1 mph 59.5 mph 90 % 0.5 in 32.00 W/m2
16:19 15.4 °F 13.8 °F 1007.0 in South 22.5 mph 43.4 mph 90 % 0.8 in 28.00 W/m2
16:24 15.4 °F 13.8 °F 1007.0 in SSE 19.3 mph 45.1 mph 90 % 1.0 in 21.00 W/m2
16:29 15.4 °F 13.9 °F 1006.9 in SSE 19.3 mph 53.1 mph 91 % 1.0 in 25.00 W/m2
16:34 15.6 °F 14.1 °F 1007.0 in South 25.7 mph 49.9 mph 91 % 1.3 in 23.00 W/m2
16:39 15.6 °F 14.1 °F 1007.1 in South 25.7 mph 41.8 mph 91 % 1.3 in 14.00 W/m2
16:44 15.7 °F 14.1 °F 1006.9 in South 22.5 mph 46.7 mph 90 % 1.0 in 12.00 W/m2
16:49 15.7 °F 14.2 °F 1006.9 in SSE 22.5 mph 40.2 mph 91 % 1.3 in 11.00 W/m2
16:54 15.8 °F 14.2 °F 1006.8 in South 24.1 mph 46.7 mph 90 % 1.0 in 12.00 W/m2
16:59 15.8 °F 14.2 °F 1006.7 in South 29.0 mph 45.1 mph 90 % 1.0 in 21.00 W/m2
17:04 15.8 °F 14.2 °F 1006.7 in South 25.7 mph 51.5 mph 90 % 1.3 in 37.00 W/m2
17:09 15.8 °F 14.3 °F 1006.4 in South 24.1 mph 51.5 mph 91 % 1.3 in 16.00 W/m2
17:14 15.8 °F 14.2 °F 1006.5 in South 27.4 mph 53.1 mph 90 % 1.0 in 11.00 W/m2
17:19 16.0 °F 14.3 °F 1006.8 in South 29.0 mph 56.3 mph 90 % 0.8 in 5.00 W/m2
17:24 16.0 °F 14.3 °F 1006.5 in South 32.2 mph 66.0 mph 90 % 0.5 in 7.00 W/m2
17:29 15.9 °F 14.3 °F 1006.4 in South 33.8 mph 64.4 mph 90 % 0.5 in 0.00 W/m2
17:34 15.8 °F 14.2 °F 1006.5 in South 32.2 mph 75.6 mph 90 % 0.8 in 0.00 W/m2
17:39 15.8 °F 14.3 °F 1006.4 in South 32.2 mph 66.0 mph 91 % 0.8 in 0.00 W/m2
17:44 15.8 °F 14.2 °F 1006.2 in South 35.4 mph 59.5 mph 90 % 1.3 in 0.00 W/m2
17:49 15.8 °F 14.3 °F 1006.0 in South 35.4 mph 56.3 mph 91 % 1.0 in 0.00 W/m2
17:54 15.9 °F 14.4 °F 1006.0 in South 32.2 mph 51.5 mph 91 % 1.0 in 0.00 W/m2
17:59 16.0 °F 14.3 °F 1006.1 in South 33.8 mph 74.0 mph 90 % 1.0 in 0.00 W/m2
18:04 15.9 °F 14.3 °F 1006.1 in South 33.8 mph 56.3 mph 90 % 1.0 in 0.00 W/m2
18:09 15.9 °F 14.4 °F 1006.0 in South 29.0 mph 61.1 mph 91 % 1.0 in 0.00 W/m2
18:14 15.8 °F 14.2 °F 1006.4 in South 27.4 mph 57.9 mph 90 % 1.0 in 0.00 W/m2
18:19 15.8 °F 14.3 °F 1006.0 in South 27.4 mph 66.0 mph 91 % 1.0 in 0.00 W/m2
18:24 15.9 °F 14.3 °F 1005.8 in South 29.0 mph 49.9 mph 90 % 1.0 in 0.00 W/m2
18:29 16.0 °F 14.3 °F 1005.7 in South 30.6 mph 61.1 mph 90 % 1.0 in 0.00 W/m2
18:34 16.1 °F 14.4 °F 1006.0 in South 27.4 mph 59.5 mph 90 % 0.8 in 0.00 W/m2
18:39 16.1 °F 14.4 °F 1005.8 in South 30.6 mph 64.4 mph 90 % 0.8 in 0.00 W/m2
18:44 16.1 °F 14.4 °F 1005.5 in South 32.2 mph 53.1 mph 90 % 0.5 in 0.00 W/m2
18:49 16.1 °F 14.4 °F 1005.7 in South 30.6 mph 59.5 mph 90 % 0.5 in 0.00 W/m2
18:54 16.0 °F 14.3 °F 1005.5 in South 30.6 mph 61.1 mph 90 % 0.8 in 0.00 W/m2
18:59 16.0 °F 14.3 °F 1005.4 in South 30.6 mph 53.1 mph 90 % 0.8 in 0.00 W/m2
19:04 15.9 °F 14.3 °F 1005.6 in South 32.2 mph 57.9 mph 90 % 0.8 in 0.00 W/m2
19:09 15.9 °F 14.4 °F 1005.5 in South 30.6 mph 57.9 mph 91 % 1.0 in 0.00 W/m2
19:14 15.8 °F 14.3 °F 1005.1 in South 29.0 mph 45.1 mph 91 % 1.3 in 0.00 W/m2
19:19 15.6 °F 14.3 °F 1005.5 in SSE 27.4 mph 62.8 mph 92 % 1.3 in 0.00 W/m2
19:24 15.4 °F 14.1 °F 1005.4 in South 25.7 mph 61.1 mph 92 % 1.3 in 0.00 W/m2
19:29 15.4 °F 14.3 °F 1005.1 in SSE 25.7 mph 61.1 mph 93 % 1.0 in 0.00 W/m2
19:34 15.4 °F 14.3 °F 1005.0 in South 24.1 mph 62.8 mph 93 % 1.0 in 0.00 W/m2
19:39 15.4 °F 14.3 °F 1005.2 in South 27.4 mph 56.3 mph 93 % 1.3 in 0.00 W/m2
19:44 15.3 °F 14.2 °F 1005.1 in South 27.4 mph 72.4 mph 93 % 1.3 in 0.00 W/m2
19:49 15.3 °F 14.3 °F 1005.4 in South 25.7 mph 72.4 mph 94 % 1.0 in 0.00 W/m2
19:54 15.2 °F 14.2 °F 1005.0 in South 30.6 mph 67.6 mph 94 % 0.8 in 0.00 W/m2
19:59 15.3 °F 14.3 °F 1005.6 in South 35.4 mph 75.6 mph 94 % 0.8 in 0.00 W/m2
20:04 15.2 °F 14.2 °F 1005.3 in South 33.8 mph 72.4 mph 94 % 0.8 in 0.00 W/m2
20:09 15.2 °F 14.2 °F 1005.0 in South 32.2 mph 66.0 mph 94 % 0.5 in 0.00 W/m2
20:14 15.2 °F 14.4 °F 1005.1 in South 32.2 mph 70.8 mph 95 % 0.5 in 0.00 W/m2
20:19 15.3 °F 14.5 °F 1005.0 in South 30.6 mph 45.1 mph 95 % 0.5 in 0.00 W/m2
20:24 15.4 °F 14.6 °F 1004.9 in South 27.4 mph 56.3 mph 95 % 0.5 in 0.00 W/m2
20:29 15.5 °F 14.6 °F 1004.6 in South 27.4 mph 51.5 mph 94 % 0.5 in 0.00 W/m2
20:34 15.6 °F 14.6 °F 1004.6 in South 29.0 mph 57.9 mph 94 % 0.5 in 0.00 W/m2
20:39 15.7 °F 14.7 °F 1004.8 in South 32.2 mph 62.8 mph 94 % 0.3 in 0.00 W/m2
20:44 15.9 °F 14.8 °F 1004.6 in South 33.8 mph 66.0 mph 93 % 0.3 in 0.00 W/m2
20:49 16.0 °F 14.7 °F 1004.6 in South 33.8 mph 72.4 mph 92 % 0.5 in 0.00 W/m2
20:54 15.9 °F 14.6 °F 1004.2 in South 33.8 mph 69.2 mph 92 % 0.5 in 0.00 W/m2
20:59 15.9 °F 14.6 °F 1004.2 in South 37.0 mph 64.4 mph 92 % 0.5 in 0.00 W/m2
21:04 15.8 °F 14.5 °F 1004.6 in South 37.0 mph 56.3 mph 92 % 0.5 in 0.00 W/m2
21:09 15.9 °F 14.6 °F 1004.2 in South 33.8 mph 64.4 mph 92 % 0.5 in 0.00 W/m2
21:14 15.9 °F 14.6 °F 1004.5 in South 32.2 mph 72.4 mph 92 % 0.5 in 0.00 W/m2
21:19 15.9 °F 14.4 °F 1004.7 in South 35.4 mph 57.9 mph 91 % 0.5 in 0.00 W/m2
21:24 15.4 °F 13.9 °F 1004.9 in SW 30.6 mph 33.8 mph 91 % 1.0 in 0.00 W/m2
21:29 14.4 °F 12.9 °F 1005.1 in SW 20.9 mph 27.4 mph 91 % 2.0 in 0.00 W/m2
21:34 14.0 °F 12.7 °F 1005.0 in SW 14.5 mph 29.0 mph 92 % 4.6 in 0.00 W/m2
21:39 13.6 °F 12.5 °F 1005.0 in WSW 12.9 mph 32.2 mph 93 % 7.6 in 0.00 W/m2
21:44 13.5 °F 12.4 °F 1004.9 in SW 17.7 mph 33.8 mph 93 % 10.9 in 0.00 W/m2
21:49 13.5 °F 12.6 °F 1004.9 in SW 17.7 mph 29.0 mph 94 % 13.7 in 0.00 W/m2
21:54 13.4 °F 12.4 °F 1005.0 in SSW 17.7 mph 35.4 mph 94 % 14.7 in 0.00 W/m2
21:59 13.3 °F 12.3 °F 1005.0 in SW 16.1 mph 27.4 mph 94 % 16.0 in 0.00 W/m2
22:04 13.3 °F 12.5 °F 1005.1 in SSW 16.1 mph 32.2 mph 95 % 16.8 in 0.00 W/m2
22:09 13.2 °F 12.4 °F 1005.3 in SSW 16.1 mph 46.7 mph 95 % 17.8 in 0.00 W/m2
22:14 13.2 °F 12.4 °F 1005.3 in SW 19.3 mph 35.4 mph 95 % 18.8 in 0.00 W/m2
22:19 13.3 °F 12.5 °F 1005.4 in SW 17.7 mph 35.4 mph 95 % 19.3 in 0.00 W/m2
22:24 12.8 °F 12.0 °F 1005.3 in SW 20.9 mph 35.4 mph 95 % 19.0 in 0.00 W/m2
22:29 12.4 °F 11.6 °F 1005.3 in SSW 22.5 mph 46.7 mph 95 % 17.8 in 0.00 W/m2
22:34 12.7 °F 11.9 °F 1005.4 in SSW 25.7 mph 45.1 mph 95 % 15.2 in 0.00 W/m2
22:39 12.6 °F 11.8 °F 1005.4 in SSW 27.4 mph 48.3 mph 95 % 12.4 in 0.00 W/m2
22:44 12.2 °F 11.3 °F 1005.3 in SSW 24.1 mph 37.0 mph 94 % 8.9 in 0.00 W/m2
22:49 12.2 °F 11.3 °F 1005.3 in SSW 24.1 mph 48.3 mph 94 % 6.6 in 0.00 W/m2
22:54 12.2 °F 11.3 °F 1005.3 in SSW 25.7 mph 51.5 mph 94 % 5.6 in 0.00 W/m2
22:59 12.1 °F 11.2 °F 1005.3 in SSW 30.6 mph 56.3 mph 94 % 5.1 in 0.00 W/m2
23:04 12.3 °F 11.4 °F 1005.1 in SSW 30.6 mph 49.9 mph 94 % 4.3 in 0.00 W/m2
23:09 12.3 °F 11.4 °F 1004.9 in SSW 27.4 mph 32.2 mph 94 % 3.8 in 0.00 W/m2
23:14 12.6 °F 11.7 °F 1005.2 in South 24.1 mph 40.2 mph 94 % 2.5 in 0.00 W/m2
23:19 13.0 °F 12.1 °F 1004.9 in South 24.1 mph 46.7 mph 94 % 2.5 in 0.00 W/m2
23:24 13.2 °F 12.3 °F 1004.7 in South 25.7 mph 46.7 mph 94 % 2.3 in 0.00 W/m2
23:29 13.2 °F 12.1 °F 1004.7 in South 29.0 mph 57.9 mph 93 % 2.3 in 0.00 W/m2
23:34 13.4 °F 12.1 °F 1005.0 in South 32.2 mph 54.7 mph 92 % 2.3 in 0.00 W/m2
23:39 13.3 °F 11.7 °F 1004.8 in South 35.4 mph 46.7 mph 90 % 2.3 in 0.00 W/m2
23:44 13.2 °F 11.4 °F 1004.6 in South 33.8 mph 48.3 mph 89 % 2.3 in 0.00 W/m2
23:49 13.0 °F 11.2 °F 1004.5 in South 27.4 mph 46.7 mph 89 % 2.0 in 0.00 W/m2
23:54 12.9 °F 10.8 °F 1004.4 in South 25.7 mph 45.1 mph 87 % 1.8 in 0.00 W/m2
23:59 13.0 °F 10.3 °F 1004.3 in South 30.6 mph 54.7 mph 84 % 1.5 in 0.00 W/m2
Meteocoruña
Agradecimientos a Weather Underground - 3 mb